Time;durP1;ratioP1;P1;durP2;ratioP2;P2;SDS_P1;SDS_P2;PMS_P1;PMS_P2;Temp;Humidity;BMP_temperature;BMP_pressure;BME280_temperature;BME280_humidity;BME280_pressure;Samples;Min_cycle;Max_cycle;Signal;HPM_P1;HPM_P2
2021/06/18 00:01:50;;;;;;;12.63;6.30;;;21.20;99.90;;;;;;5020269;28;20128;-89
2021/06/18 00:04:15;;;;;;;9.68;4.63;;;21.20;99.90;;;;;;5017518;28;20088;-88
2021/06/18 00:06:41;;;;;;;9.90;6.00;;;21.10;99.90;;;;;;5016176;28;20481;-88
2021/06/18 00:09:08;;;;;;;13.63;7.35;;;22.40;99.90;;;;;;5034196;28;20036;-89
2021/06/18 00:11:33;;;;;;;9.50;5.57;;;22.10;99.90;;;;;;5020181;28;20020;-89
2021/06/18 00:13:59;;;;;;;13.05;6.88;;;21.00;99.90;;;;;;5016055;28;20017;-88
2021/06/18 00:16:25;;;;;;;12.75;6.40;;;21.00;99.90;;;;;;5033418;28;20459;-87
2021/06/18 00:18:50;;;;;;;12.50;7.03;;;21.00;99.90;;;;;;5015655;28;20123;-88
2021/06/18 00:21:16;;;;;;;14.88;7.93;;;21.20;99.90;;;;;;5015738;28;20387;-89
2021/06/18 00:23:41;;;;;;;16.65;7.30;;;21.10;99.90;;;;;;5015978;28;20088;-88
2021/06/18 00:26:07;;;;;;;14.15;7.20;;;22.20;99.90;;;;;;5015551;28;20030;-88
2021/06/18 00:28:35;;;;;;;12.98;8.23;;;21.00;99.90;;;;;;5018622;28;20028;-88
2021/06/18 00:31:01;;;;;;;12.50;7.05;;;21.00;99.90;;;;;;5019864;28;20030;-88
2021/06/18 00:33:29;;;;;;;17.17;6.95;;;21.00;99.90;;;;;;5036695;28;20445;-88
2021/06/18 00:35:57;;;;;;;10.40;6.88;;;21.00;99.90;;;;;;5019382;28;20501;-89
2021/06/18 00:38:23;;;;;;;11.10;6.80;;;21.00;99.90;;;;;;5019293;28;20033;-89
2021/06/18 00:40:49;;;;;;;14.02;8.25;;;21.10;99.90;;;;;;5019040;28;20083;-88
2021/06/18 00:43:14;;;;;;;9.95;7.07;;;23.10;99.90;;;;;;5019653;28;20075;-89
2021/06/18 00:45:43;;;;;;;11.82;6.90;;;21.10;99.90;;;;;;5018807;28;20120;-88
2021/06/18 00:48:10;;;;;;;14.13;6.78;;;21.10;99.90;;;;;;5018899;28;20112;-86
2021/06/18 00:50:35;;;;;;;14.10;7.55;;;21.10;99.90;;;;;;5018833;28;20026;-88
2021/06/18 00:53:01;;;;;;;10.07;6.40;;;21.00;99.90;;;;;;5037050;28;20079;-88
2021/06/18 00:55:27;;;;;;;13.32;7.53;;;21.10;99.90;;;;;;5018963;28;20064;-88
2021/06/18 00:57:53;;;;;;;13.23;7.75;;;21.50;99.90;;;;;;5019210;28;20018;-88
2021/06/18 01:00:19;;;;;;;12.82;7.47;;;21.10;99.90;;;;;;5018316;28;20040;-88
2021/06/18 01:02:45;;;;;;;10.25;7.25;;;21.10;99.90;;;;;;5018379;28;20545;-88
2021/06/18 01:05:15;;;;;;;19.83;7.93;;;21.10;99.90;;;;;;5018592;28;20060;-88
2021/06/18 01:08:07;;;;;;;13.98;7.88;;;23.30;99.90;;;;;;5018459;28;20053;-88
2021/06/18 01:10:59;;;;;;;11.30;7.32;;;20.90;99.90;;;;;;5018389;28;20060;-88
2021/06/18 01:13:54;;;;;;;11.35;6.35;;;21.00;99.90;;;;;;5008896;28;20037;-88
2021/06/18 01:16:45;;;;;;;14.40;7.03;;;20.90;99.90;;;;;;4988406;28;20044;-88
2021/06/18 01:19:28;;;;;;;14.70;8.27;;;20.90;99.90;;;;;;5016886;28;20042;-88
2021/06/18 01:22:03;;;;;;;13.90;8.32;;;20.90;99.90;;;;;;5014493;28;20033;-88
2021/06/18 01:24:46;;;;;;;11.45;7.78;;;21.00;99.90;;;;;;5032162;28;20057;-89
2021/06/18 01:27:27;;;;;;;16.70;7.75;;;20.90;99.90;;;;;;5019077;28;20064;-88
2021/06/18 01:30:10;;;;;;;16.88;9.65;;;21.00;99.90;;;;;;5018250;28;20116;-88
2021/06/18 01:32:51;;;;;;;11.27;7.50;;;21.00;99.90;;;;;;5036760;28;20032;-88
2021/06/18 01:35:19;;;;;;;14.32;8.23;;;21.00;99.90;;;;;;5036295;28;20017;-88
2021/06/18 01:37:56;;;;;;;15.63;8.57;;;21.00;99.90;;;;;;5013177;28;20029;-88
2021/06/18 01:40:26;;;;;;;13.77;8.18;;;21.00;99.90;;;;;;5035783;28;20030;-88
2021/06/18 01:42:53;;;;;;;13.07;7.93;;;21.00;99.90;;;;;;5036364;28;20033;-87
2021/06/18 01:45:23;;;;;;;14.60;8.15;;;22.10;99.90;;;;;;5017639;28;20025;-88
2021/06/18 01:47:49;;;;;;;10.35;7.55;;;20.90;99.90;;;;;;5035491;28;20112;-88
2021/06/18 01:50:21;;;;;;;13.75;8.23;;;20.90;99.90;;;;;;5017462;28;20056;-88
2021/06/18 01:52:53;;;;;;;12.77;6.80;;;20.80;99.90;;;;;;5018152;28;20029;-88
2021/06/18 01:55:23;;;;;;;13.93;7.55;;;20.90;99.90;;;;;;5028581;28;20084;-87
2021/06/18 01:57:55;;;;;;;12.30;7.25;;;20.90;99.90;;;;;;5039040;28;20026;-87
2021/06/18 02:00:22;;;;;;;9.00;6.57;;;20.90;99.90;;;;;;5039628;28;20035;-87
2021/06/18 02:02:49;;;;;;;15.13;6.55;;;20.50;99.90;;;;;;5025210;28;20037;-87
2021/06/18 02:05:16;;;;;;;13.82;6.35;;;21.80;99.90;;;;;;5056008;28;20045;-87
2021/06/18 02:07:43;;;;;;;10.32;7.03;;;22.90;99.90;;;;;;5037440;28;20367;-87
2021/06/18 02:10:10;;;;;;;13.45;8.18;;;22.10;99.90;;;;;;5054168;28;20025;-87
2021/06/18 02:12:37;;;;;;;14.25;7.93;;;20.80;99.90;;;;;;5036880;28;20022;-87
2021/06/18 02:15:06;;;;;;;15.05;8.73;;;23.00;99.90;;;;;;5035529;28;20026;-88
2021/06/18 02:17:33;;;;;;;11.20;7.32;;;20.70;99.90;;;;;;5051391;28;20036;-87
2021/06/18 02:20:01;;;;;;;13.55;7.00;;;23.80;99.90;;;;;;5037281;28;20029;-87
2021/06/18 02:22:29;;;;;;;12.68;6.97;;;20.70;99.90;;;;;;5037523;28;20005;-87
2021/06/18 02:24:56;;;;;;;13.52;7.25;;;22.80;99.90;;;;;;5037733;28;20090;-87
2021/06/18 02:27:22;;;;;;;11.80;7.40;;;22.70;99.90;;;;;;5039101;28;20033;-85
2021/06/18 02:29:48;;;;;;;13.75;7.80;;;24.20;99.90;;;;;;5057267;28;20028;-84
2021/06/18 02:32:15;;;;;;;12.75;7.97;;;20.60;99.90;;;;;;5039594;28;20021;-85
2021/06/18 02:34:41;;;;;;;14.18;8.48;;;22.10;99.90;;;;;;5055969;28;20096;-85
2021/06/18 02:37:09;;;;;;;14.18;8.77;;;20.60;99.90;;;;;;5055051;28;20025;-85
2021/06/18 02:39:35;;;;;;;13.75;8.70;;;22.10;99.90;;;;;;5056872;28;20029;-86
2021/06/18 02:42:01;;;;;;;14.23;8.80;;;21.20;99.90;;;;;;5055967;28;20089;-85
2021/06/18 02:44:27;;;;;;;14.93;7.85;;;23.10;99.90;;;;;;5038697;28;20040;-85
2021/06/18 02:47:28;;;;;;;13.18;8.75;;;20.50;99.90;;;;;;5038910;28;20060;-85
2021/06/18 02:50:13;;;;;;;14.23;8.65;;;20.50;99.90;;;;;;5036508;28;20043;-85
2021/06/18 02:52:50;;;;;;;14.88;9.32;;;20.40;99.90;;;;;;5039022;28;20016;-87
2021/06/18 02:55:20;;;;;;;11.93;7.43;;;23.00;99.90;;;;;;5039701;28;20026;-86
2021/06/18 02:57:53;;;;;;;16.10;8.40;;;20.40;99.90;;;;;;5025105;28;20020;-86
2021/06/18 03:00:22;;;;;;;15.05;7.65;;;22.80;99.90;;;;;;5040044;28;20009;-87
2021/06/18 03:02:53;;;;;;;14.73;8.80;;;20.40;99.90;;;;;;5039775;28;20013;-86
2021/06/18 03:05:24;;;;;;;15.25;8.35;;;20.40;99.90;;;;;;5060621;22;20053;-89
2021/06/18 03:07:55;;;;;;;13.95;7.93;;;21.40;99.90;;;;;;5056000;28;20106;-90
2021/06/18 03:10:25;;;;;;;12.93;8.23;;;21.20;99.90;;;;;;5038637;28;20052;-90
2021/06/18 03:12:58;;;;;;;14.32;9.23;;;20.40;99.90;;;;;;5035306;28;20021;-87
2021/06/18 03:15:25;;;;;;;15.13;8.93;;;21.10;99.90;;;;;;5019048;28;20044;-87
2021/06/18 03:17:53;;;;;;;22.90;9.85;;;20.50;99.90;;;;;;4998708;28;20491;-90
2021/06/18 03:20:21;;;;;;;20.00;9.60;;;20.40;99.90;;;;;;4998240;28;20109;-90
2021/06/18 03:22:55;;;;;;;22.23;10.82;;;20.50;99.90;;;;;;4998392;28;20287;-90
2021/06/18 03:25:22;;;;;;;19.38;10.70;;;22.60;99.90;;;;;;4997996;28;20036;-90
2021/06/18 03:27:49;;;;;;;18.75;10.90;;;20.40;99.90;;;;;;5015661;28;20022;-91
2021/06/18 03:30:15;;;;;;;16.25;10.40;;;20.40;99.90;;;;;;4999422;28;20113;-90
2021/06/18 03:32:42;;;;;;;19.52;11.60;;;20.40;99.90;;;;;;4998034;28;20040;-90
2021/06/18 03:35:09;;;;;;;17.80;11.50;;;20.40;99.90;;;;;;5002529;28;20028;-87
2021/06/18 03:37:36;;;;;;;18.63;11.38;;;20.40;99.90;;;;;;5016682;28;20034;-89
2021/06/18 03:40:03;;;;;;;18.17;12.02;;;20.30;99.90;;;;;;5016756;28;20029;-91
2021/06/18 03:42:28;;;;;;;19.23;11.65;;;20.30;99.90;;;;;;5008357;28;20038;-89
2021/06/18 03:44:58;;;;;;;19.67;11.65;;;20.30;99.90;;;;;;5002046;28;20391;-89
2021/06/18 03:47:26;;;;;;;27.38;12.50;;;22.20;99.90;;;;;;5015901;28;20057;-88
2021/06/18 03:49:53;;;;;;;18.88;12.20;;;20.20;99.90;;;;;;5015715;28;20029;-87
2021/06/18 03:52:19;;;;;;;17.58;11.05;;;20.20;99.90;;;;;;5004069;28;20071;-87
2021/06/18 03:54:45;;;;;;;22.92;13.13;;;22.00;99.90;;;;;;5018990;28;20483;-86
2021/06/18 03:57:14;;;;;;;19.25;12.93;;;20.20;99.90;;;;;;5006799;28;20037;-86
2021/06/18 03:59:42;;;;;;;19.10;13.07;;;20.20;99.90;;;;;;5005267;28;20026;-87
2021/06/18 04:02:12;;;;;;;20.00;13.43;;;19.90;99.90;;;;;;4999763;28;20490;-87
2021/06/18 04:04:38;;;;;;;20.92;12.20;;;22.90;99.90;;;;;;5019018;28;20117;-88
2021/06/18 04:07:07;;;;;;;20.20;12.60;;;23.30;99.90;;;;;;5018208;28;20486;-87
2021/06/18 04:09:36;;;;;;;22.23;12.68;;;20.20;99.90;;;;;;5024403;28;20033;-89
2021/06/18 04:12:02;;;;;;;20.80;13.43;;;20.10;99.90;;;;;;5000388;28;20108;-89
2021/06/18 04:14:28;;;;;;;21.83;12.65;;;20.10;99.90;;;;;;5000162;28;20026;-87
2021/06/18 04:16:54;;;;;;;19.75;12.60;;;19.90;99.90;;;;;;5009967;28;20163;-88
2021/06/18 04:19:20;;;;;;;22.60;12.55;;;20.50;99.90;;;;;;5037805;28;20017;-88
2021/06/18 04:21:46;;;;;;;21.83;14.68;;;19.90;99.90;;;;;;5017869;28;20022;-88
2021/06/18 04:24:13;;;;;;;27.02;14.18;;;19.90;99.90;;;;;;5002826;28;20038;-87
2021/06/18 04:26:40;;;;;;;23.92;14.65;;;22.00;99.90;;;;;;5019396;28;20021;-88
2021/06/18 04:29:05;;;;;;;22.92;14.32;;;20.00;99.90;;;;;;5017809;28;20060;-88
2021/06/18 04:31:31;;;;;;;17.85;13.65;;;20.00;99.90;;;;;;5000706;28;20364;-88
2021/06/18 04:33:57;;;;;;;24.15;14.70;;;19.90;99.90;;;;;;5038005;28;20045;-88
2021/06/18 04:36:22;;;;;;;26.27;13.98;;;19.90;99.90;;;;;;5020547;28;20010;-88
2021/06/18 04:38:48;;;;;;;22.25;14.05;;;20.00;99.90;;;;;;5016634;28;20032;-87
2021/06/18 04:41:13;;;;;;;24.17;14.60;;;19.90;99.90;;;;;;5018976;28;20121;-87
2021/06/18 04:43:39;;;;;;;22.73;13.73;;;21.50;99.90;;;;;;5004450;28;20189;-88
2021/06/18 04:46:04;;;;;;;22.27;14.95;;;19.90;99.90;;;;;;5009712;28;20030;-88
2021/06/18 04:48:31;;;;;;;25.05;14.85;;;19.90;99.90;;;;;;5017830;28;20552;-87
2021/06/18 04:50:56;;;;;;;24.65;15.85;;;19.90;99.90;;;;;;5008368;28;20026;-88
2021/06/18 04:53:22;;;;;;;27.27;15.35;;;19.90;99.90;;;;;;5001058;28;20022;-88
2021/06/18 04:55:47;;;;;;;24.45;15.75;;;19.90;99.90;;;;;;5009795;28;20128;-88
2021/06/18 04:58:14;;;;;;;25.45;15.52;;;20.50;99.90;;;;;;5012982;28;20036;-86
2021/06/18 05:00:40;;;;;;;24.08;15.02;;;22.00;99.90;;;;;;5020179;28;20426;-85
2021/06/18 05:03:06;;;;;;;25.40;14.57;;;19.80;99.90;;;;;;5015451;28;20045;-85
2021/06/18 05:05:32;;;;;;;23.38;15.88;;;19.50;99.90;;;;;;5039757;28;20041;-85
2021/06/18 05:07:58;;;;;;;22.55;14.55;;;19.80;99.90;;;;;;5010386;28;20083;-85
2021/06/18 05:10:25;;;;;;;22.52;14.70;;;20.40;99.90;;;;;;5002366;28;20134;-85
2021/06/18 05:12:51;;;;;;;24.33;15.35;;;19.80;99.90;;;;;;5003516;28;20483;-85
2021/06/18 05:15:17;;;;;;;29.60;17.33;;;19.80;99.90;;;;;;5019704;28;20021;-85
2021/06/18 05:17:42;;;;;;;23.17;15.43;;;19.90;99.90;;;;;;5006523;28;20113;-84
2021/06/18 05:20:09;;;;;;;28.33;16.88;;;19.90;99.90;;;;;;5020546;28;20502;-84
2021/06/18 05:22:34;;;;;;;25.23;15.68;;;19.90;99.90;;;;;;5020519;28;20061;-83
2021/06/18 05:25:00;;;;;;;27.33;15.68;;;20.00;99.90;;;;;;5002665;28;20030;-84
2021/06/18 05:27:26;;;;;;;22.65;15.02;;;20.60;99.90;;;;;;5003205;28;20026;-83
2021/06/18 05:29:52;;;;;;;27.92;16.67;;;20.20;99.90;;;;;;5002922;28;20035;-84
2021/06/18 05:32:18;;;;;;;25.83;17.13;;;20.70;99.90;;;;;;5002964;28;20022;-84
2021/06/18 05:34:44;;;;;;;26.58;16.83;;;23.10;99.90;;;;;;5004158;28;20056;-82
2021/06/18 05:37:10;;;;;;;27.05;17.02;;;20.70;99.90;;;;;;5017714;28;20033;-83
2021/06/18 05:39:35;;;;;;;26.52;16.77;;;20.80;99.90;;;;;;5003506;28;20471;-83
2021/06/18 05:42:01;;;;;;;25.60;15.57;;;21.20;99.90;;;;;;5005417;28;20108;-83
2021/06/18 05:44:27;;;;;;;24.15;15.82;;;21.00;99.90;;;;;;5030661;28;20025;-83
2021/06/18 05:46:52;;;;;;;30.27;16.95;;;24.00;99.90;;;;;;5031189;28;20045;-84
2021/06/18 05:49:21;;;;;;;34.75;17.38;;;21.70;99.90;;;;;;5021010;28;20021;-84
2021/06/18 05:51:46;;;;;;;32.53;18.33;;;21.20;99.90;;;;;;5038907;28;20455;-84
2021/06/18 05:54:13;;;;;;;37.13;18.70;;;23.40;99.90;;;;;;5003809;28;20075;-84
2021/06/18 05:56:40;;;;;;;26.38;16.23;;;21.30;99.90;;;;;;5041816;28;20026;-84
2021/06/18 05:59:06;;;;;;;29.65;18.35;;;22.40;99.90;;;;;;5025601;28;20034;-85
2021/06/18 06:01:31;;;;;;;27.85;17.38;;;22.40;99.90;;;;;;5005629;28;20056;-83
2021/06/18 06:03:57;;;;;;;23.02;16.80;;;21.50;99.90;;;;;;5043361;28;20087;-86
2021/06/18 06:06:22;;;;;;;26.58;17.05;;;21.50;99.90;;;;;;5040314;28;20029;-85
2021/06/18 06:08:52;;;;;;;24.58;14.70;;;21.60;99.90;;;;;;5037307;28;20082;-85
2021/06/18 06:11:17;;;;;;;23.70;15.75;;;21.60;99.90;;;;;;5019585;28;20104;-84
2021/06/18 06:13:46;;;;;;;22.95;15.25;;;21.60;99.90;;;;;;5031607;28;20121;-86
2021/06/18 06:16:12;;;;;;;17.63;12.50;;;21.50;99.90;;;;;;5021119;28;20056;-86
2021/06/18 06:18:38;;;;;;;21.13;13.30;;;22.70;99.90;;;;;;5020815;28;20037;-86
2021/06/18 06:21:03;;;;;;;20.08;12.60;;;21.40;99.90;;;;;;5018357;28;20036;-86
2021/06/18 06:23:29;;;;;;;21.33;14.50;;;21.30;99.90;;;;;;5006699;28;20035;-86
2021/06/18 06:25:55;;;;;;;22.65;13.32;;;21.30;99.90;;;;;;5018917;28;20417;-87
2021/06/18 06:28:21;;;;;;;20.02;12.35;;;21.30;99.90;;;;;;5011447;28;20058;-86
2021/06/18 06:30:46;;;;;;;20.42;12.30;;;21.30;99.90;;;;;;5016861;28;20364;-86
2021/06/18 06:33:13;;;;;;;17.98;12.43;;;21.80;99.90;;;;;;5031798;28;20028;-87
2021/06/18 06:35:39;;;;;;;20.27;12.45;;;22.70;99.90;;;;;;5020721;28;20041;-87
2021/06/18 06:38:08;;;;;;;17.85;12.18;;;21.40;99.90;;;;;;5007317;28;20033;-87
2021/06/18 06:40:33;;;;;;;20.80;12.57;;;21.70;99.90;;;;;;5006803;28;20026;-86
2021/06/18 06:42:59;;;;;;;19.55;12.63;;;21.40;99.90;;;;;;5011947;28;20064;-88
2021/06/18 06:45:25;;;;;;;18.90;13.48;;;21.40;99.90;;;;;;5004587;28;20115;-87
2021/06/18 06:47:51;;;;;;;21.08;12.52;;;23.80;99.90;;;;;;5000594;28;20022;-87
2021/06/18 06:50:17;;;;;;;23.35;14.20;;;22.00;99.90;;;;;;5007449;28;20041;-87
2021/06/18 06:52:43;;;;;;;18.65;13.25;;;21.70;99.90;;;;;;4998083;28;20018;-87
2021/06/18 06:55:10;;;;;;;22.95;14.65;;;23.60;99.90;;;;;;5005889;28;20013;-85
2021/06/18 06:57:35;;;;;;;16.08;11.18;;;21.70;99.90;;;;;;5035676;28;20025;-87
2021/06/18 07:00:01;;;;;;;20.90;13.13;;;21.80;99.90;;;;;;5014117;28;20033;-87
2021/06/18 07:02:27;;;;;;;18.95;12.27;;;21.80;99.90;;;;;;5018212;28;20022;-87
2021/06/18 07:04:52;;;;;;;18.17;12.45;;;21.90;99.90;;;;;;5009786;28;20034;-87
2021/06/18 07:07:18;;;;;;;17.60;12.43;;;21.90;99.90;;;;;;5015743;28;20454;-88
2021/06/18 07:09:47;;;;;;;17.70;11.15;;;21.80;99.90;;;;;;4999966;28;20030;-87
2021/06/18 07:12:12;;;;;;;15.82;10.40;;;21.90;99.90;;;;;;4998541;28;20034;-87
2021/06/18 07:14:40;;;;;;;15.60;9.88;;;21.90;99.90;;;;;;5033871;28;20143;-87
2021/06/18 07:17:06;;;;;;;15.63;10.80;;;21.90;99.90;;;;;;5004322;28;20022;-88
2021/06/18 07:19:32;;;;;;;19.88;9.82;;;21.80;99.90;;;;;;5014243;28;20497;-87
2021/06/18 07:21:59;;;;;;;15.95;9.80;;;21.70;99.90;;;;;;5034392;28;20030;-86
2021/06/18 07:24:24;;;;;;;15.27;10.13;;;24.60;99.90;;;;;;5006027;28;20040;-87
2021/06/18 07:26:50;;;;;;;14.98;9.95;;;20.60;99.90;;;;;;5036159;28;20025;-88
2021/06/18 07:29:16;;;;;;;17.05;10.27;;;21.90;99.90;;;;;;5022983;28;20017;-87
2021/06/18 07:31:43;;;;;;;14.13;9.52;;;25.80;99.90;;;;;;5033308;28;20065;-88
2021/06/18 07:34:08;;;;;;;16.75;10.57;;;24.60;99.90;;;;;;5034664;28;20033;-89
2021/06/18 07:36:34;;;;;;;16.67;10.75;;;24.90;99.90;;;;;;5026160;28;20037;-85
2021/06/18 07:39:00;;;;;;;15.25;10.15;;;22.60;99.90;;;;;;5001218;28;20022;-86
2021/06/18 07:41:25;;;;;;;17.42;9.52;;;21.50;99.90;;;;;;5019114;28;20033;-87
2021/06/18 07:43:51;;;;;;;14.68;9.77;;;21.60;99.90;;;;;;5014980;28;20030;-89
2021/06/18 07:46:17;;;;;;;19.55;11.02;;;21.60;99.90;;;;;;5002493;28;20022;-88
2021/06/18 07:48:42;;;;;;;15.07;10.32;;;21.60;99.90;;;;;;5021712;28;20022;-88
2021/06/18 07:51:09;;;;;;;12.38;8.88;;;21.60;99.90;;;;;;5010185;28;20467;-87
2021/06/18 07:53:35;;;;;;;15.35;9.93;;;21.60;99.90;;;;;;5016253;28;20032;-88
2021/06/18 07:56:01;;;;;;;18.00;10.15;;;21.60;99.90;;;;;;5010755;28;20356;-90
2021/06/18 07:58:27;;;;;;;13.90;9.80;;;21.60;99.90;;;;;;4996875;28;20033;-88
2021/06/18 08:00:53;;;;;;;14.27;10.38;;;22.80;99.90;;;;;;5029489;28;20057;-87
2021/06/18 08:03:18;;;;;;;15.50;9.63;;;22.30;99.90;;;;;;4996937;28;20108;-88
2021/06/18 08:05:44;;;;;;;13.43;9.48;;;22.50;99.90;;;;;;4999443;28;20088;-88
2021/06/18 08:08:12;;;;;;;12.00;9.27;;;25.70;99.90;;;;;;5017051;28;20022;-89
2021/06/18 08:10:38;;;;;;;13.70;9.45;;;21.70;99.90;;;;;;5027570;28;20061;-86
2021/06/18 08:13:03;;;;;;;17.38;10.20;;;21.60;99.90;;;;;;4997085;28;20026;-88
2021/06/18 08:15:29;;;;;;;15.48;9.75;;;23.50;99.90;;;;;;4999945;28;20533;-87
2021/06/18 08:17:56;;;;;;;14.57;9.73;;;21.70;99.90;;;;;;5006457;28;20068;-88
2021/06/18 08:20:24;;;;;;;17.45;9.98;;;21.70;99.90;;;;;;4997107;28;20025;-88
2021/06/18 08:22:50;;;;;;;;;;;24.50;99.90;;;;;;4996798;28;20479;-88
2021/06/18 08:25:16;;;;;;;15.68;9.88;;;23.60;99.90;;;;;;4997973;28;19959;-89
2021/06/18 08:27:41;;;;;;;12.23;9.30;;;21.80;99.90;;;;;;4996800;28;20033;-87
2021/06/18 08:30:08;;;;;;;11.70;8.32;;;22.90;99.90;;;;;;5015432;28;20407;-88
2021/06/18 08:32:33;;;;;;;12.13;8.77;;;21.90;99.90;;;;;;4998022;28;20041;-87
2021/06/18 08:34:59;;;;;;;14.50;9.90;;;21.90;99.90;;;;;;5020762;28;20113;-88
2021/06/18 08:37:25;;;;;;;12.93;9.48;;;22.20;99.90;;;;;;5008721;28;20018;-88
2021/06/18 08:39:50;;;;;;;14.13;8.82;;;22.00;99.90;;;;;;5037831;28;20040;-88
2021/06/18 08:42:17;;;;;;;11.65;7.90;;;25.00;99.90;;;;;;5019724;28;20036;-87
2021/06/18 08:44:45;;;;;;;12.32;8.40;;;22.00;99.90;;;;;;5028795;28;20100;-86
2021/06/18 08:47:11;;;;;;;9.93;7.18;;;24.90;99.90;;;;;;5006036;28;20022;-87
2021/06/18 08:49:37;;;;;;;12.43;7.88;;;22.30;99.90;;;;;;5038597;28;20151;-87
2021/06/18 08:52:03;;;;;;;10.02;7.85;;;22.90;99.90;;;;;;5020342;28;20481;-88
2021/06/18 08:54:41;;;;;;;11.80;7.53;;;22.70;99.90;;;;;;5029675;28;20050;-88
2021/06/18 08:57:15;;;;;;;9.95;7.38;;;22.90;99.90;;;;;;5017930;28;20014;-87
2021/06/18 08:59:41;;;;;;;10.27;7.00;;;23.10;99.90;;;;;;5014478;28;20155;-89
2021/06/18 09:02:07;;;;;;;9.02;6.57;;;25.10;99.90;;;;;;5027324;28;20069;-88
2021/06/18 09:04:33;;;;;;;9.77;6.53;;;24.10;99.90;;;;;;4999495;28;20025;-87
2021/06/18 09:07:00;;;;;;;8.82;6.55;;;24.10;99.90;;;;;;5030753;28;20347;-87
2021/06/18 09:09:27;;;;;;;11.00;5.63;;;24.40;99.90;;;;;;5002635;28;20052;-87
2021/06/18 09:11:59;;;;;;;7.47;4.53;;;24.60;99.90;;;;;;5014304;28;20033;-89
2021/06/18 09:14:35;;;;;;;7.10;4.13;;;24.70;99.90;;;;;;5020705;28;20029;-86
2021/06/18 09:17:05;;;;;;;6.18;4.07;;;24.80;99.90;;;;;;5020334;28;20031;-88
2021/06/18 09:19:32;;;;;;;5.35;3.65;;;24.90;99.90;;;;;;5021126;28;20031;-87
2021/06/18 09:21:59;;;;;;;4.70;3.17;;;25.00;99.90;;;;;;5000572;28;20026;-89
2021/06/18 09:24:35;;;;;;;5.05;3.40;;;25.10;99.90;;;;;;5004593;28;20021;-87
2021/06/18 09:27:02;;;;;;;2.92;2.63;;;25.20;99.90;;;;;;5029380;28;20097;-87
2021/06/18 09:29:28;;;;;;;2.85;2.33;;;25.30;99.90;;;;;;5013881;28;20100;-89
2021/06/18 09:32:06;;;;;;;4.38;2.58;;;27.10;99.90;;;;;;5019240;28;20033;-88
2021/06/18 09:35:00;;;;;;;5.15;1.98;;;25.70;99.90;;;;;;5019507;28;20037;-88
2021/06/18 09:37:35;;;;;;;5.72;3.05;;;25.90;99.90;;;;;;5031656;28;20029;-87
2021/06/18 09:40:04;;;;;;;2.83;2.10;;;26.10;99.90;;;;;;5036829;28;20013;-89
2021/06/18 09:42:30;;;;;;;3.70;2.13;;;26.20;99.90;;;;;;5054093;28;20040;-88
2021/06/18 09:45:14;;;;;;;4.53;2.60;;;26.80;99.90;;;;;;5011985;28;20021;-90
2021/06/18 09:47:40;;;;;;;5.05;2.08;;;26.40;99.90;;;;;;5018681;28;20051;-89
2021/06/18 09:50:27;;;;;;;3.63;1.77;;;28.30;99.90;;;;;;5019008;28;20479;-91
2021/06/18 09:53:11;;;;;;;3.67;1.40;;;26.60;99.90;;;;;;5005034;28;20033;-87
2021/06/18 09:55:37;;;;;;;1.45;1.35;;;27.00;99.90;;;;;;5015695;28;20053;-88
2021/06/18 09:58:03;;;;;;;2.15;1.42;;;26.90;99.90;;;;;;4999103;28;20026;-88
2021/06/18 10:00:29;;;;;;;1.98;1.33;;;27.10;99.90;;;;;;5007408;28;20044;-89
2021/06/18 10:02:55;;;;;;;2.80;1.23;;;27.20;99.90;;;;;;5012278;28;20486;-88
2021/06/18 10:05:36;;;;;;;2.47;1.13;;;27.40;99.90;;;;;;5017747;28;20176;-88
2021/06/18 10:08:03;;;;;;;1.25;0.98;;;27.50;99.90;;;;;;5018460;28;20032;-89
2021/06/18 10:10:36;;;;;;;3.25;1.27;;;27.80;99.90;;;;;;5018216;28;20562;-89
2021/06/18 10:13:02;;;;;;;3.65;1.13;;;29.80;99.90;;;;;;5037183;28;20025;-89
2021/06/18 10:15:30;;;;;;;4.30;1.65;;;29.80;99.90;;;;;;5032864;28;20395;-87
2021/06/18 10:18:01;;;;;;;1.65;1.17;;;30.80;99.90;;;;;;5005975;28;20072;-88
2021/06/18 10:20:29;;;;;;;3.20;1.95;;;27.10;99.90;;;;;;5018028;28;20418;-88
2021/06/18 10:23:01;;;;;;;;;;;31.50;99.90;;;;;;5017879;28;20032;-89
2021/06/18 10:25:34;;;;;;;3.90;2.00;;;28.80;99.90;;;;;;5034548;28;19923;-89
2021/06/18 10:28:05;;;;;;;3.85;2.38;;;29.90;99.90;;;;;;4997808;28;20029;-89
2021/06/18 10:30:36;;;;;;;3.22;2.28;;;29.50;99.90;;;;;;5016568;28;20025;-89
2021/06/18 10:33:29;;;;;;;4.43;2.47;;;28.90;99.30;;;;;;5015074;28;20025;-86
2021/06/18 10:36:05;;;;;;;5.53;2.17;;;29.00;96.80;;;;;;5017818;28;20108;-88
2021/06/18 10:38:37;;;;;;;2.60;2.13;;;29.10;98.00;;;;;;5017282;28;20036;-89
2021/06/18 10:41:18;;;;;;;5.47;2.47;;;29.30;97.70;;;;;;5015192;28;20076;-88
2021/06/18 10:43:44;;;;;;;3.08;2.55;;;29.50;96.90;;;;;;5005290;28;20036;-89
2021/06/18 10:46:42;;;;;;;4.20;2.95;;;29.60;95.70;;;;;;5034622;28;20025;-89
2021/06/18 10:49:15;;;;;;;4.38;2.95;;;29.50;95.60;;;;;;4991520;28;20057;-88
2021/06/18 10:51:43;;;;;;;4.05;3.17;;;29.80;95.70;;;;;;5015361;28;20079;-87
2021/06/18 10:54:25;;;;;;;9.15;3.90;;;29.90;95.30;;;;;;4998828;28;20049;-88
2021/06/18 10:56:59;;;;;;;8.55;4.10;;;30.10;94.60;;;;;;4997305;28;20117;-88
2021/06/18 10:59:28;;;;;;;8.40;3.38;;;30.30;94.90;;;;;;4997375;28;20506;-90
2021/06/18 11:01:54;;;;;;;5.75;3.42;;;30.70;94.50;;;;;;4997404;28;20030;-88
2021/06/18 11:04:36;;;;;;;4.28;3.67;;;30.70;94.50;;;;;;5015712;28;20033;-90
2021/06/18 11:07:21;;;;;;;4.68;3.25;;;31.10;91.90;;;;;;5013343;28;20128;-90
2021/06/18 11:09:49;;;;;;;5.85;3.55;;;31.30;92.50;;;;;;5016670;28;20021;-88
2021/06/18 11:12:23;;;;;;;4.80;4.00;;;32.50;90.10;;;;;;5015905;28;20029;-91
2021/06/18 11:14:57;;;;;;;5.25;3.60;;;31.20;90.70;;;;;;5034052;28;20082;-91
2021/06/18 11:17:44;;;;;;;4.50;3.92;;;31.40;92.10;;;;;;5005142;28;20115;-90
2021/06/18 11:20:12;;;;;;;7.80;4.50;;;31.20;90.70;;;;;;5015363;28;20022;-90
2021/06/18 11:22:50;;;;;;;;;;;31.40;90.60;;;;;;5009511;28;20037;-90
2021/06/18 11:25:34;;;;;;;;;;;31.60;89.40;;;;;;5017247;28;19905;-89
2021/06/18 11:28:19;;;;;;;4.68;3.22;;;31.90;90.10;;;;;;5004819;28;19921;-89
2021/06/18 11:30:57;;;;;;;6.82;4.13;;;32.10;89.40;;;;;;5015793;28;20033;-87
2021/06/18 11:36:32;;;;;;;4.57;4.13;;;32.30;86.70;;;;;;5015318;28;20100;-87
2021/06/18 11:39:10;;;;;;;7.47;5.18;;;32.60;87.90;;;;;;5002680;28;20037;-90
2021/06/18 11:41:40;;;;;;;6.78;5.18;;;32.60;86.00;;;;;;5021317;28;20026;-89
2021/06/18 11:44:07;;;;;;;7.03;5.93;;;32.90;83.90;;;;;;5002673;28;20025;-88
2021/06/18 11:46:34;;;;;;;8.43;5.35;;;33.00;81.70;;;;;;5032047;28;20053;-88
2021/06/18 11:49:12;;;;;;;8.57;6.10;;;34.70;81.80;;;;;;5009881;28;20037;-90
2021/06/18 11:51:37;;;;;;;14.18;5.18;;;33.00;80.40;;;;;;5005442;28;20029;-90
2021/06/18 11:54:03;;;;;;;9.52;4.93;;;33.00;80.80;;;;;;5013804;28;20025;-89
2021/06/18 11:56:30;;;;;;;7.03;5.32;;;32.90;80.00;;;;;;5011770;28;20034;-89
2021/06/18 11:58:56;;;;;;;8.50;4.57;;;32.80;80.10;;;;;;5016328;28;20032;-89
2021/06/18 12:01:25;;;;;;;7.85;5.40;;;32.70;81.60;;;;;;5006282;28;20022;-89
2021/06/18 12:03:55;;;;;;;7.63;5.28;;;33.00;82.10;;;;;;5035948;28;20029;-90
2021/06/18 12:06:22;;;;;;;10.07;4.10;;;33.40;79.40;;;;;;5029294;28;20033;-89
2021/06/18 12:09:13;;;;;;;5.23;4.30;;;34.40;76.00;;;;;;5018885;28;20080;-90
2021/06/18 12:11:40;;;;;;;4.43;3.97;;;33.80;73.40;;;;;;5000073;28;20040;-92
2021/06/18 12:14:07;;;;;;;5.65;3.72;;;34.20;74.50;;;;;;5018310;28;20030;-87
2021/06/18 12:16:35;;;;;;;4.43;3.85;;;34.10;71.00;;;;;;5018139;28;20072;-86
2021/06/18 12:19:21;;;;;;;7.88;3.90;;;34.10;71.50;;;;;;5007311;28;20381;-88
2021/06/18 12:22:01;;;;;;;9.63;4.20;;;34.50;71.40;;;;;;5003899;28;20021;-88
2021/06/18 12:24:54;;;;;;;11.20;4.10;;;34.80;69.20;;;;;;5023378;28;20026;-87
2021/06/18 12:27:31;;;;;;;8.10;3.28;;;34.70;65.70;;;;;;5019486;28;20112;-87
2021/06/18 12:29:59;;;;;;;;;;;34.60;64.80;;;;;;5021867;28;20124;-88
2021/06/18 12:32:27;;;;;;;5.57;2.67;;;34.80;64.20;;;;;;5013330;28;19917;-87
2021/06/18 12:35:04;;;;;;;4.85;2.53;;;34.90;60.40;;;;;;5018431;28;20029;-88
2021/06/18 12:37:33;;;;;;;8.88;3.67;;;34.70;60.60;;;;;;5000892;28;20057;-87
2021/06/18 12:40:06;;;;;;;7.93;4.57;;;35.80;62.70;;;;;;5005704;28;20021;-87
2021/06/18 12:42:40;;;;;;;7.93;4.30;;;34.50;61.00;;;;;;5032017;28;20045;-86
2021/06/18 12:45:16;;;;;;;10.43;2.85;;;34.40;61.30;;;;;;5031538;28;20033;-88
2021/06/18 12:47:44;;;;;;;5.32;3.45;;;34.40;62.70;;;;;;5005451;28;20032;-88
2021/06/18 12:50:25;;;;;;;8.45;2.70;;;34.80;63.50;;;;;;5038388;28;20053;-87
2021/06/18 12:52:53;;;;;;;5.50;3.05;;;35.00;61.70;;;;;;5035885;28;20032;-88